CheckWX is a tool to help pilots better visualize weather data.  It is not intended as a substitute for an official pre-flight weather briefing.

03:13:05 UTC

EGCK METAR
Caernarfon Airport
Caernarfon, United Kingdom
Current

23 mins ago

EGCK 260250Z AUTO 18012KT 9999 BKN026/// 15/13 Q1013
Observed
May-26 @ 02:50 UTC
Wind
  • 180° at 12 KTS
Visibility
10,000+ meters
Flight Rules
MVFR
Cloud Levels
  • Broken at 2,600' AGL
Temperature
15°C / 59°F
Dewpoint
13°C / 55°F
Humidity
88%
Altimeter
29.91" Hg
Pressure
1012.92 hPa
Previous

53 mins ago

EGCK 260220Z AUTO 18011KT 9999 OVC028/// 15/13 Q1013
Observed
May-26 @ 02:20 UTC
Wind
  • 180° at 11 KTS
Visibility
10,000+ meters
Flight Rules
MVFR
Cloud Levels
  • Overcast at 2,800' AGL
Temperature
15°C / 59°F
Dewpoint
13°C / 55°F
Humidity
88%
Altimeter
29.91" Hg
Pressure
1012.92 hPa
Previous

1 hour ago

EGCK 260150Z AUTO 18011KT 9999 OVC030/// 15/13 Q1014
Observed
May-26 @ 01:50 UTC
Wind
  • 180° at 11 KTS
Visibility
10,000+ meters
Flight Rules
MVFR
Cloud Levels
  • Overcast at 3,000' AGL
Temperature
15°C / 59°F
Dewpoint
13°C / 55°F
Humidity
88%
Altimeter
29.94" Hg
Pressure
1013.92 hPa